createdAt,value
2018-03-06T00:00:43.129Z,84.70
2018-03-06T00:03:11.420Z,84.80
2018-03-06T00:05:39.752Z,84.70
2018-03-06T00:08:08.062Z,84.60
2018-03-06T00:10:36.397Z,84.40
2018-03-06T00:13:04.700Z,84.30
2018-03-06T00:15:32.265Z,84.30
2018-03-06T00:18:00.568Z,84.20
2018-03-06T00:20:28.897Z,84.10
2018-03-06T00:22:57.210Z,83.80
2018-03-06T00:25:25.543Z,83.80
2018-03-06T00:27:53.847Z,83.70
2018-03-06T00:30:22.168Z,83.60
2018-03-06T00:32:50.478Z,83.60
2018-03-06T00:35:18.813Z,83.70
2018-03-06T00:37:47.116Z,83.60
2018-03-06T00:40:15.451Z,83.40
2018-03-06T00:42:43.756Z,83.50
2018-03-06T00:45:12.080Z,83.90
2018-03-06T00:47:40.384Z,83.90
2018-03-06T00:50:08.741Z,84.00
2018-03-06T00:52:37.052Z,84.10
2018-03-06T00:55:05.403Z,84.00
2018-03-06T00:57:33.710Z,84.20
2018-03-06T01:00:02.020Z,84.50
2018-03-06T01:02:30.340Z,84.70
2018-03-06T01:04:58.657Z,85.00
2018-03-06T01:07:26.976Z,85.30
2018-03-06T01:09:55.272Z,85.50
2018-03-06T01:12:23.608Z,85.50
2018-03-06T01:14:51.923Z,85.80
2018-03-06T01:17:19.502Z,85.80
2018-03-06T01:19:47.813Z,86.10
2018-03-06T01:22:16.142Z,86.00
2018-03-06T01:24:44.452Z,86.10
2018-03-06T01:27:12.777Z,86.20
2018-03-06T01:29:41.092Z,86.40
2018-03-06T01:32:09.428Z,86.50
2018-03-06T01:34:37.745Z,86.10
2018-03-06T01:37:06.093Z,86.90
2018-03-06T01:39:34.409Z,87.10
2018-03-06T01:42:02.741Z,87.00
2018-03-06T01:44:31.047Z,87.10
2018-03-06T01:46:59.378Z,87.80
2018-03-06T01:49:27.686Z,86.90
2018-03-06T01:51:58.756Z,87.00
2018-03-06T01:54:27.063Z,87.10
2018-03-06T01:56:55.396Z,86.90
2018-03-06T01:59:23.702Z,86.90
2018-03-06T02:01:52.040Z,87.00
2018-03-06T02:04:20.341Z,86.90
2018-03-06T02:06:48.668Z,87.10
2018-03-06T02:09:16.980Z,87.20
2018-03-06T02:11:45.309Z,87.20
2018-03-06T02:14:12.848Z,87.20
2018-03-06T02:16:41.177Z,87.60
2018-03-06T02:19:09.488Z,87.70
2018-03-06T02:21:37.053Z,87.70
2018-03-06T02:24:05.364Z,88.70
2018-03-06T02:26:33.689Z,87.90
2018-03-06T02:29:01.992Z,87.90
2018-03-06T02:31:30.320Z,88.00
2018-03-06T02:33:58.634Z,87.80
2018-03-06T02:36:26.960Z,87.70
2018-03-06T02:38:55.264Z,87.70
2018-03-06T02:41:23.597Z,87.90
2018-03-06T02:43:51.891Z,88.20
2018-03-06T02:46:20.229Z,87.50
2018-03-06T02:48:48.556Z,88.10
2018-03-06T02:51:16.860Z,88.20
2018-03-06T02:53:45.192Z,88.00
2018-03-06T02:56:12.736Z,88.00
2018-03-06T02:58:41.062Z,87.90
2018-03-06T03:01:09.361Z,87.90
2018-03-06T03:03:37.684Z,87.90
2018-03-06T03:06:05.988Z,87.80
2018-03-06T03:08:34.311Z,87.60
2018-03-06T03:11:02.621Z,87.50
2018-03-06T03:13:30.943Z,87.70
2018-03-06T03:15:59.245Z,87.80
2018-03-06T03:18:27.577Z,88.80
2018-03-06T03:20:55.885Z,88.20
2018-03-06T03:23:24.213Z,88.30
2018-03-06T03:25:52.517Z,88.30
2018-03-06T03:28:20.853Z,88.30
2018-03-06T03:30:49.162Z,88.30
2018-03-06T03:33:17.488Z,88.50
2018-03-06T03:35:45.800Z,88.50
2018-03-06T03:38:14.135Z,88.70
2018-03-06T03:40:42.439Z,89.10
2018-03-06T03:43:10.765Z,89.20
2018-03-06T03:45:39.056Z,89.10
2018-03-06T03:48:07.384Z,89.10
2018-03-06T03:50:35.691Z,89.90
2018-03-06T03:53:03.257Z,89.10
2018-03-06T03:55:31.561Z,89.10
2018-03-06T03:57:59.884Z,89.20
2018-03-06T04:00:28.193Z,89.20
2018-03-06T04:02:56.519Z,89.10
2018-03-06T04:05:24.815Z,89.20
2018-03-06T04:07:53.140Z,89.20
2018-03-06T04:10:21.447Z,89.20
2018-03-06T04:12:49.769Z,89.20
2018-03-06T04:15:18.082Z,89.30
2018-03-06T04:17:46.417Z,89.30
2018-03-06T04:20:14.729Z,89.20
2018-03-06T04:22:43.051Z,89.10
2018-03-06T04:25:11.361Z,89.20
2018-03-06T04:27:39.693Z,89.30
2018-03-06T04:30:08.001Z,89.20
2018-03-06T04:32:36.304Z,89.50
2018-03-06T04:35:04.631Z,89.70
2018-03-06T04:37:32.945Z,89.60
2018-03-06T04:40:01.288Z,89.60
2018-03-06T04:42:29.584Z,89.40
2018-03-06T04:44:57.932Z,89.40
2018-03-06T04:47:25.462Z,89.30
2018-03-06T04:49:53.787Z,89.40
2018-03-06T04:52:22.091Z,89.50
2018-03-06T04:54:50.415Z,89.50
2018-03-06T04:57:18.728Z,89.60
2018-03-06T04:59:47.052Z,90.20
2018-03-06T05:02:15.364Z,89.60
2018-03-06T05:04:43.702Z,89.60
2018-03-06T05:07:12.004Z,89.60
2018-03-06T05:09:40.340Z,89.60
2018-03-06T05:12:08.641Z,89.70
2018-03-06T05:14:36.968Z,89.80
2018-03-06T05:17:05.277Z,89.80
2018-03-06T05:19:33.605Z,89.90
2018-03-06T05:22:01.924Z,90.00
2018-03-06T05:24:30.245Z,90.00
2018-03-06T05:26:57.792Z,90.00
2018-03-06T05:29:26.127Z,90.10
2018-03-06T05:31:54.441Z,90.20
2018-03-06T05:34:22.772Z,90.10
2018-03-06T05:36:51.085Z,90.10
2018-03-06T05:39:19.407Z,90.00
2018-03-06T05:41:47.720Z,89.90
2018-03-06T05:44:16.052Z,89.90
2018-03-06T05:46:44.359Z,90.00
2018-03-06T05:49:12.689Z,90.00
2018-03-06T05:51:40.997Z,90.00
2018-03-06T05:54:09.327Z,90.00
2018-03-06T05:56:37.636Z,90.00
2018-03-06T05:59:05.969Z,90.00
2018-03-06T06:01:34.279Z,90.00
2018-03-06T06:04:02.608Z,90.00
2018-03-06T06:06:30.930Z,89.80
2018-03-06T06:08:59.264Z,89.70
2018-03-06T06:11:27.585Z,90.00
2018-03-06T06:13:55.892Z,90.00
2018-03-06T06:16:24.207Z,90.10
2018-03-06T06:18:52.503Z,90.10
2018-03-06T06:21:20.874Z,90.20
2018-03-06T06:23:49.136Z,90.20
2018-03-06T06:26:17.454Z,90.20
2018-03-06T06:28:45.748Z,90.20
2018-03-06T06:31:14.063Z,90.10
2018-03-06T06:33:42.361Z,90.10
2018-03-06T06:36:10.675Z,90.10
2018-03-06T06:38:38.976Z,90.10
2018-03-06T06:41:07.289Z,90.10
2018-03-06T06:43:35.589Z,90.00
2018-03-06T06:46:03.137Z,90.00
2018-03-06T06:48:31.432Z,89.80
2018-03-06T06:50:59.747Z,89.50
2018-03-06T06:53:28.036Z,89.30
2018-03-06T06:55:56.354Z,89.20
2018-03-06T06:58:24.648Z,88.90
2018-03-06T07:00:52.960Z,88.70
2018-03-06T07:03:21.259Z,88.60
2018-03-06T07:05:49.570Z,88.40
2018-03-06T07:08:17.864Z,89.00
2018-03-06T07:10:46.176Z,88.00
2018-03-06T07:13:14.474Z,87.70
2018-03-06T07:15:42.794Z,87.90
2018-03-06T07:18:11.087Z,87.10
2018-03-06T07:20:39.400Z,87.00
2018-03-06T07:23:07.693Z,87.00
2018-03-06T07:25:36.008Z,86.60
2018-03-06T07:28:04.305Z,86.30
2018-03-06T07:30:33.020Z,86.10
2018-03-06T07:33:01.317Z,85.90
2018-03-06T07:35:29.634Z,85.50
2018-03-06T07:37:57.928Z,85.20
2018-03-06T07:40:26.238Z,84.80
2018-03-06T07:42:54.532Z,84.60
2018-03-06T07:45:22.896Z,84.50
2018-03-06T07:47:51.152Z,84.00
2018-03-06T07:50:19.481Z,83.70
2018-03-06T07:52:47.781Z,83.40
2018-03-06T07:55:16.085Z,82.80
2018-03-06T07:57:44.402Z,82.30
2018-03-06T08:00:12.683Z,81.70
2018-03-06T08:02:40.988Z,81.10
2018-03-06T08:05:09.280Z,80.50
2018-03-06T08:07:37.592Z,80.20
2018-03-06T08:10:05.880Z,80.10
2018-03-06T08:12:34.200Z,80.00
2018-03-06T08:15:02.492Z,79.60
2018-03-06T08:17:30.809Z,79.20
2018-03-06T08:19:59.602Z,78.60
2018-03-06T08:22:27.917Z,77.90
2018-03-06T08:24:56.208Z,77.70
2018-03-06T08:27:24.524Z,77.40
2018-03-06T08:29:52.816Z,77.10
2018-03-06T08:32:21.129Z,76.50
2018-03-06T08:34:49.425Z,76.10
2018-03-06T08:37:17.745Z,75.60
2018-03-06T08:39:46.037Z,75.10
2018-03-06T08:42:14.354Z,74.70
2018-03-06T08:44:42.675Z,74.10
2018-03-06T08:47:11.064Z,73.50
2018-03-06T08:49:39.351Z,72.70
2018-03-06T08:52:07.656Z,72.20
2018-03-06T08:54:35.944Z,71.90
2018-03-06T08:57:04.266Z,71.00
2018-03-06T08:59:32.564Z,70.20
2018-03-06T09:02:00.121Z,69.90
2018-03-06T09:04:28.431Z,67.50
2018-03-06T09:06:56.748Z,66.70
2018-03-06T09:09:25.058Z,66.10
2018-03-06T09:11:53.377Z,65.10
2018-03-06T09:14:20.917Z,65.10
2018-03-06T09:16:49.236Z,63.40
2018-03-06T09:19:17.537Z,62.70
2018-03-06T09:21:45.094Z,62.70
2018-03-06T09:24:13.422Z,60.40
2018-03-06T09:26:41.745Z,60.50
2018-03-06T09:29:10.041Z,59.70
2018-03-06T09:31:38.365Z,58.80
2018-03-06T09:34:06.664Z,58.30
2018-03-06T09:36:34.989Z,58.20
2018-03-06T09:39:03.294Z,58.00
2018-03-06T09:41:31.601Z,57.30
2018-03-06T09:43:59.924Z,56.80
2018-03-06T09:46:27.456Z,56.70
2018-03-06T09:48:55.774Z,56.00
2018-03-06T09:51:24.075Z,55.70
2018-03-06T09:53:52.393Z,55.30
2018-03-06T09:56:20.697Z,55.30
2018-03-06T09:58:49.011Z,55.60
2018-03-06T10:01:17.307Z,55.60
2018-03-06T10:03:45.624Z,55.40
2018-03-06T10:06:13.930Z,55.20
2018-03-06T10:08:42.262Z,55.10
2018-03-06T10:11:10.562Z,55.00
2018-03-06T10:13:38.885Z,55.30
2018-03-06T10:16:07.180Z,55.40
2018-03-06T10:18:35.518Z,55.40
2018-03-06T10:21:03.820Z,55.40
2018-03-06T10:23:32.164Z,55.30
2018-03-06T10:26:00.500Z,55.00
2018-03-06T10:28:28.828Z,54.80
2018-03-06T10:30:57.135Z,54.40
2018-03-06T10:33:25.478Z,54.20
2018-03-06T10:35:53.777Z,54.20
2018-03-06T10:38:22.101Z,54.00
2018-03-06T10:40:50.397Z,53.90
2018-03-06T10:43:18.719Z,54.00
2018-03-06T10:45:47.025Z,54.20
2018-03-06T10:48:15.353Z,54.20
2018-03-06T10:50:43.666Z,54.00
2018-03-06T10:53:12.029Z,53.80
2018-03-06T10:55:39.538Z,53.80
2018-03-06T10:58:07.861Z,54.00
2018-03-06T11:00:41.770Z,54.10
2018-03-06T11:03:10.099Z,54.10
2018-03-06T11:05:38.398Z,54.00
2018-03-06T11:08:06.720Z,54.10
2018-03-06T11:10:35.024Z,53.70
2018-03-06T11:13:03.344Z,52.90
2018-03-06T11:15:31.640Z,52.10
2018-03-06T11:17:59.951Z,51.70
2018-03-06T11:20:28.247Z,51.10
2018-03-06T11:22:56.576Z,50.70
2018-03-06T11:25:24.871Z,50.90
2018-03-06T11:27:53.170Z,50.90
2018-03-06T11:30:21.482Z,50.40
2018-03-06T11:32:49.784Z,50.20
2018-03-06T11:35:18.115Z,50.00
2018-03-06T11:37:46.400Z,49.50
2018-03-06T11:40:14.717Z,49.20
2018-03-06T11:42:43.024Z,48.80
2018-03-06T11:45:11.345Z,48.60
2018-03-06T11:47:39.632Z,48.30
2018-03-06T11:50:07.948Z,47.90
2018-03-06T11:52:36.247Z,47.60
2018-03-06T11:55:03.796Z,47.60
2018-03-06T11:57:32.101Z,46.80
2018-03-06T12:00:00.411Z,46.50
2018-03-06T12:02:30.637Z,46.40
2018-03-06T12:04:58.952Z,46.60
2018-03-06T12:07:26.476Z,46.60
2018-03-06T12:09:54.785Z,47.90
2018-03-06T12:12:23.088Z,48.80
2018-03-06T12:14:50.635Z,48.80
2018-03-06T12:17:18.941Z,49.80
2018-03-06T12:19:47.252Z,50.20
2018-03-06T12:22:15.543Z,50.50
2018-03-06T12:24:43.866Z,50.80
2018-03-06T12:27:12.169Z,50.90
2018-03-06T12:29:40.472Z,51.20
2018-03-06T12:32:07.996Z,51.20
2018-03-06T12:34:36.316Z,50.80
2018-03-06T12:37:04.611Z,50.60
2018-03-06T12:39:32.933Z,50.80
2018-03-06T12:42:01.212Z,50.70
2018-03-06T12:44:29.527Z,51.30
2018-03-06T12:46:57.812Z,50.50
2018-03-06T12:49:26.137Z,50.20
2018-03-06T12:51:53.660Z,50.30
2018-03-06T12:54:21.976Z,50.40
2018-03-06T12:56:51.060Z,49.60
2018-03-06T12:59:19.380Z,49.00
2018-03-06T13:01:47.666Z,48.60
2018-03-06T13:04:15.980Z,48.30
2018-03-06T13:06:44.272Z,48.50
2018-03-06T13:09:12.613Z,48.30
2018-03-06T13:11:40.908Z,48.30
2018-03-06T13:14:09.200Z,48.50
2018-03-06T13:16:37.513Z,48.80
2018-03-06T13:19:05.812Z,48.60
2018-03-06T13:21:34.137Z,48.40
2018-03-06T13:24:02.443Z,48.70
2018-03-06T13:26:30.770Z,49.20
2018-03-06T13:28:59.076Z,49.50
2018-03-06T13:31:27.384Z,49.70
2018-03-06T13:33:55.674Z,49.90
2018-03-06T13:36:24.047Z,50.00
2018-03-06T13:38:52.310Z,50.20
2018-03-06T13:41:19.864Z,50.10
2018-03-06T13:43:48.152Z,50.50
2018-03-06T13:46:16.477Z,50.60
2018-03-06T13:48:44.008Z,50.60
2018-03-06T13:51:12.330Z,50.90
2018-03-06T13:53:40.633Z,50.80
2018-03-06T13:56:08.943Z,50.20
2018-03-06T13:58:49.347Z,50.00
2018-03-06T14:01:17.668Z,49.90
2018-03-06T14:03:45.969Z,49.60
2018-03-06T14:06:14.323Z,49.60
2018-03-06T14:08:42.631Z,49.40
2018-03-06T14:11:10.951Z,49.20
2018-03-06T14:13:39.248Z,49.00
2018-03-06T14:16:07.564Z,48.80
2018-03-06T14:18:35.865Z,49.10
2018-03-06T14:21:04.189Z,48.80
2018-03-06T14:23:32.508Z,48.60
2018-03-06T14:26:00.837Z,48.40
2018-03-06T14:28:29.140Z,48.60
2018-03-06T14:30:57.469Z,48.90
2018-03-06T14:33:25.780Z,48.90
2018-03-06T14:35:54.104Z,49.00
2018-03-06T14:38:22.405Z,48.90
2018-03-06T14:40:50.744Z,49.20
2018-03-06T14:43:19.039Z,49.30
2018-03-06T14:45:47.384Z,49.30
2018-03-06T14:48:15.684Z,49.20
2018-03-06T14:50:43.992Z,49.50
2018-03-06T14:53:12.296Z,49.90
2018-03-06T14:55:40.628Z,50.10
2018-03-06T14:58:08.926Z,50.40
2018-03-06T15:00:37.251Z,50.50
2018-03-06T15:03:05.546Z,50.60
2018-03-06T15:05:33.847Z,50.80
2018-03-06T15:08:02.173Z,50.70
2018-03-06T15:10:30.465Z,50.80
2018-03-06T15:12:58.779Z,50.70
2018-03-06T15:15:27.081Z,50.70
2018-03-06T15:17:55.394Z,50.50
2018-03-06T15:20:23.709Z,50.60
2018-03-06T15:22:52.028Z,50.60
2018-03-06T15:25:20.320Z,50.70
2018-03-06T15:27:48.632Z,51.10
2018-03-06T15:30:16.925Z,51.30
2018-03-06T15:32:44.476Z,51.30
2018-03-06T15:35:12.772Z,51.70
2018-03-06T15:37:41.088Z,52.00
2018-03-06T15:40:09.380Z,52.20
2018-03-06T15:42:37.699Z,52.40
2018-03-06T15:45:05.998Z,52.60
2018-03-06T15:47:34.315Z,52.70
2018-03-06T15:50:02.604Z,52.80
2018-03-06T15:52:30.157Z,52.80
2018-03-06T15:54:58.440Z,53.10
2018-03-06T15:57:26.790Z,53.20
2018-03-06T15:59:55.085Z,53.20
2018-03-06T16:02:23.402Z,53.20
2018-03-06T16:04:51.695Z,53.40
2018-03-06T16:07:20.008Z,53.60
2018-03-06T16:09:48.304Z,53.70
2018-03-06T16:12:15.851Z,53.60
2018-03-06T16:14:44.154Z,53.80
2018-03-06T16:17:12.479Z,53.90
2018-03-06T16:19:40.768Z,54.00
2018-03-06T16:22:08.320Z,54.00
2018-03-06T16:24:36.619Z,54.70
2018-03-06T16:27:04.936Z,55.00
2018-03-06T16:29:33.233Z,55.40
2018-03-06T16:32:01.557Z,55.70
2018-03-06T16:34:29.847Z,56.00
2018-03-06T16:36:58.157Z,56.10
2018-03-06T16:39:26.452Z,56.30
2018-03-06T16:41:54.753Z,56.70
2018-03-06T16:44:22.301Z,56.70
2018-03-06T16:46:50.597Z,57.40
2018-03-06T16:49:18.959Z,58.40
2018-03-06T16:51:47.232Z,58.30
2018-03-06T16:54:15.544Z,58.70
2018-03-06T16:56:43.845Z,59.10
2018-03-06T16:59:12.156Z,59.50
2018-03-06T17:01:40.460Z,60.80
2018-03-06T17:04:08.776Z,61.10
2018-03-06T17:06:37.064Z,61.40
2018-03-06T17:09:05.372Z,61.60
2018-03-06T17:11:33.678Z,62.80
2018-03-06T17:14:01.999Z,62.20
2018-03-06T17:16:30.288Z,62.30
2018-03-06T17:18:58.601Z,62.60
2018-03-06T17:21:26.893Z,62.80
2018-03-06T17:23:55.204Z,63.10
2018-03-06T17:26:23.504Z,63.30
2018-03-06T17:28:51.808Z,63.80
2018-03-06T17:31:20.105Z,64.20
2018-03-06T17:33:48.423Z,64.50
2018-03-06T17:36:16.720Z,65.00
2018-03-06T17:38:45.048Z,65.30
2018-03-06T17:41:12.585Z,65.30
2018-03-06T17:43:40.949Z,65.50
2018-03-06T17:46:08.436Z,65.50
2018-03-06T17:48:36.748Z,65.80
2018-03-06T17:51:05.056Z,66.00
2018-03-06T17:53:33.365Z,66.20
2018-03-06T17:56:01.666Z,66.50
2018-03-06T17:58:29.986Z,66.90
2018-03-06T18:00:58.294Z,67.20
2018-03-06T18:03:26.704Z,67.50
2018-03-06T18:05:55.017Z,67.70
2018-03-06T18:08:23.328Z,68.10
2018-03-06T18:10:51.639Z,68.40
2018-03-06T18:13:24.324Z,69.40
2018-03-06T18:15:52.679Z,69.00
2018-03-06T18:18:20.255Z,68.90
2018-03-06T18:20:48.588Z,70.40
2018-03-06T18:23:16.899Z,69.80
2018-03-06T18:25:45.243Z,70.00
2018-03-06T18:28:13.578Z,70.30
2018-03-06T18:30:41.955Z,70.60
2018-03-06T18:33:10.313Z,70.90
2018-03-06T18:35:38.793Z,70.90
2018-03-06T18:38:07.177Z,71.10
2018-03-06T18:40:35.661Z,71.20
2018-03-06T18:43:03.972Z,71.30
2018-03-06T18:45:32.288Z,71.40
2018-03-06T18:48:00.583Z,71.50
2018-03-06T18:50:40.712Z,71.70
2018-03-06T18:53:08.993Z,72.00
2018-03-06T18:55:37.312Z,72.00
2018-03-06T18:58:05.611Z,72.00
2018-03-06T19:00:59.533Z,72.00
2018-03-06T19:03:39.537Z,73.00
2018-03-06T19:06:19.698Z,72.10
2018-03-06T19:08:47.988Z,72.20
2018-03-06T19:11:16.333Z,72.40
2018-03-06T19:13:44.625Z,72.50
2018-03-06T19:16:12.168Z,72.50
2018-03-06T19:18:40.464Z,72.50
2018-03-06T19:21:08.850Z,72.60
2018-03-06T19:23:37.169Z,72.70
2018-03-06T19:26:05.484Z,72.80
2018-03-06T19:28:33.793Z,72.90
2018-03-06T19:31:02.150Z,73.00
2018-03-06T19:33:29.805Z,73.00
2018-03-06T19:35:58.138Z,73.20
2018-03-06T19:38:26.441Z,73.30
2018-03-06T19:40:54.768Z,73.30
2018-03-06T19:43:23.056Z,73.40
2018-03-06T19:45:51.433Z,73.50
2018-03-06T19:48:19.733Z,73.70
2018-03-06T19:50:48.108Z,73.80
2018-03-06T19:53:16.415Z,73.80
2018-03-06T19:55:44.748Z,74.00
2018-03-06T19:58:13.079Z,74.10
2018-03-06T20:00:41.397Z,74.10
2018-03-06T20:03:09.711Z,74.30
2018-03-06T20:05:38.029Z,74.50
2018-03-06T20:08:06.352Z,74.50
2018-03-06T20:10:34.698Z,74.50
2018-03-06T20:13:03.024Z,74.50
2018-03-06T20:15:31.338Z,74.70
2018-03-06T20:17:59.633Z,74.90
2018-03-06T20:20:27.951Z,75.00
2018-03-06T20:22:56.314Z,75.00
2018-03-06T20:25:30.349Z,75.00
2018-03-06T20:27:58.640Z,75.20
2018-03-06T20:30:32.765Z,76.40
2018-03-06T20:33:06.006Z,75.40
2018-03-06T20:35:34.348Z,75.60
2018-03-06T20:38:02.663Z,75.80
2018-03-06T20:40:34.021Z,75.90
2018-03-06T20:43:02.346Z,76.20
2018-03-06T20:45:35.646Z,76.10
2018-03-06T20:48:03.968Z,76.50
2018-03-06T20:50:32.276Z,76.80
2018-03-06T20:53:06.358Z,77.10
2018-03-06T20:55:34.712Z,77.40
2018-03-06T20:58:03.082Z,77.30
2018-03-06T21:00:31.364Z,77.40
2018-03-06T21:02:59.691Z,77.80
2018-03-06T21:05:28.102Z,77.80
2018-03-06T21:07:55.660Z,77.80
2018-03-06T21:10:23.952Z,78.40
2018-03-06T21:12:51.493Z,78.30
2018-03-06T21:15:19.788Z,78.30
2018-03-06T21:17:48.136Z,78.30
2018-03-06T21:20:16.428Z,78.50
2018-03-06T21:22:44.776Z,78.60
2018-03-06T21:25:13.070Z,79.10
2018-03-06T21:27:41.384Z,79.40
2018-03-06T21:30:09.673Z,79.60
2018-03-06T21:32:38.036Z,79.80
2018-03-06T21:35:06.330Z,81.00
2018-03-06T21:37:35.576Z,80.20
2018-03-06T21:40:03.878Z,80.50
2018-03-06T21:42:32.200Z,80.70
2018-03-06T21:45:00.494Z,80.60
2018-03-06T21:47:28.806Z,80.60
2018-03-06T21:49:57.092Z,80.70
2018-03-06T21:52:25.402Z,80.60
2018-03-06T21:54:53.701Z,80.80
2018-03-06T21:57:22.018Z,80.60
2018-03-06T21:59:50.303Z,81.10
2018-03-06T22:02:17.848Z,81.00
2018-03-06T22:04:46.140Z,81.20
2018-03-06T22:07:14.461Z,81.10
2018-03-06T22:09:42.752Z,81.00
2018-03-06T22:12:11.071Z,81.10
2018-03-06T22:14:39.360Z,81.10
2018-03-06T22:17:07.686Z,81.20
2018-03-06T22:19:35.984Z,81.40
2018-03-06T22:22:04.272Z,81.60
2018-03-06T22:24:32.588Z,81.80
2018-03-06T22:27:00.112Z,81.80
2018-03-06T22:29:28.425Z,82.20
2018-03-06T22:31:56.713Z,82.50
2018-03-06T22:34:25.024Z,82.70
2018-03-06T22:36:52.552Z,82.70
2018-03-06T22:39:20.874Z,83.20
2018-03-06T22:41:49.165Z,83.20
2018-03-06T22:44:17.476Z,83.10
2018-03-06T22:46:45.764Z,83.00
2018-03-06T22:49:14.077Z,83.00
2018-03-06T22:51:42.364Z,83.30
2018-03-06T22:54:10.673Z,83.40
2018-03-06T22:56:38.955Z,83.60
2018-03-06T22:59:07.298Z,83.80
2018-03-06T23:01:35.605Z,83.80
2018-03-06T23:04:03.928Z,83.90
2018-03-06T23:06:32.217Z,83.70
2018-03-06T23:09:00.524Z,83.60
2018-03-06T23:11:28.808Z,83.80
2018-03-06T23:13:57.117Z,83.90
2018-03-06T23:16:24.640Z,83.90
2018-03-06T23:18:52.948Z,84.10
2018-03-06T23:21:21.236Z,84.10
2018-03-06T23:23:49.552Z,84.30
2018-03-06T23:26:17.846Z,84.20
2018-03-06T23:28:46.153Z,84.20
2018-03-06T23:31:14.448Z,84.30
2018-03-06T23:33:42.754Z,84.40
2018-03-06T23:36:11.041Z,84.50
2018-03-06T23:38:39.357Z,85.00
2018-03-06T23:41:07.653Z,85.30
2018-03-06T23:43:35.967Z,85.50
2018-03-06T23:46:04.252Z,85.40
2018-03-06T23:48:33.380Z,85.50
2018-03-06T23:51:01.681Z,85.50
2018-03-06T23:53:29.985Z,85.50
2018-03-06T23:55:58.273Z,85.40
2018-03-06T23:58:26.586Z,85.50
